Abingdon, VA (24210)

2:16 AM EDT on September 30, 2016 (GMT -0400)
Country Club Estates | | Change Station

Elev 1990 ft 36.69 °N, 81.97 °W | Updated 0 second ago

Overcast
Overcast
55.4 °F
Feels Like 55.4 °F
N
0.0
Wind Variable Wind from WNW
Gusts 0.1 mph

Today
High -- | Low -- °F
--% Chance of Precip.
Yesterday
High -- | Low -- °F
Precip. -- in
Pressure 30.05 in
Visibility 10.0 miles
Clouds Scattered Clouds 600 ft
Mostly Cloudy 1000 ft
Overcast 3700 ft
Dew Point 55 °F
Humidity 98%
Rainfall 0.00 in
Snow Depth Not available.
7:22 AM 7:12 PM
Waning Crescent, 1% visible
METAR KVJI 300555Z AUTO 00000KT 10SM SCT006 BKN010 OVC037 14/14 A3005 RMK AO2 T01420139 10146 20140 402270132
Pressure 30.05 in
Visibility 10.0 miles
Clouds Scattered Clouds 600 ft
Mostly Cloudy 1000 ft
Overcast 3700 ft
Dew Point 55 °F
Humidity 98%
Rainfall 0.00 in
Snow Depth Not available.
7:22 AM 7:12 PM
Waning Crescent, 1% visible
METAR KVJI 300555Z AUTO 00000KT 10SM SCT006 BKN010 OVC037 14/14 A3005 RMK AO2 T01420139 10146 20140 402270132

10-Day Weather Forecast

Almanac

Astronomy

Sep. 30, 2016 Rise Set
Actual Time
Civil Twilight
Nautical Twilight
Astronomical Twilight
Moon
Length of Visible Light
Length of Day
Tomorrow will be .
, % of the Moon is Illuminated

Today's Extremes

State Highs State Lows

Community

WunderPhotos

Upload Photos

1,942,668 photos uploaded!

WunderBlog® & News

Nearby

Air Quality

  Air Quality AQ Index Pollutant
Not available.

Snow Depth

Station Depth Elevation

Earthquake Activity

City Distance Mag. Time & Date
Minimum magnitude displayed is 2.5.

Coastal Water Temperatures

Place Temperature

Stations

Nearby Weather Stations

Station Location Temp. Windchill Dew Point Humidity Wind Precip. Elev Updated Type
                   

Watches & Warnings

There are currently no watches in effect.